Time;durP1;ratioP1;P1;durP2;ratioP2;P2;SDS_P1;SDS_P2;PMS_P1;PMS_P2;Temp;Humidity;BMP_temperature;BMP_pressure;BME280_temperature;BME280_humidity;BME280_pressure;Samples;Min_cycle;Max_cycle;Signal;HPM_P1;HPM_P2
2021/08/23 00:02:16;;;;;;;6.65;4.63;;;;;;;-142.25;100.00;58004.16;5106386;28;20410;-60
2021/08/23 00:04:41;;;;;;;3.75;3.38;;;;;;;-142.25;100.00;58004.16;5106681;28;20376;-60
2021/08/23 00:07:06;;;;;;;4.57;4.05;;;;;;;-142.25;100.00;58004.16;5107522;28;20036;-59
2021/08/23 00:09:33;;;;;;;5.45;4.70;;;;;;;-142.25;100.00;58004.16;5106527;28;20027;-59
2021/08/23 00:11:59;;;;;;;4.10;3.65;;;;;;;-142.25;100.00;58004.16;5106334;28;20024;-59
2021/08/23 00:14:25;;;;;;;6.75;4.80;;;;;;;-142.25;100.00;58004.16;5104735;28;20416;-59
2021/08/23 00:16:50;;;;;;;5.10;4.03;;;;;;;-142.25;100.00;58004.16;5107107;28;20042;-59
2021/08/23 00:19:15;;;;;;;7.97;4.18;;;;;;;-142.25;100.00;58004.16;5106546;28;20036;-60
2021/08/23 00:21:43;;;;;;;5.95;4.20;;;;;;;-142.25;100.00;58004.16;5107653;28;20036;-60
2021/08/23 00:24:30;;;;;;;13.13;6.28;;;;;;;-142.25;100.00;58004.16;5106404;28;20066;-60
2021/08/23 00:26:57;;;;;;;4.60;4.13;;;;;;;-142.25;100.00;58004.16;5103639;27;20461;-58
2021/08/23 00:29:26;;;;;;;4.55;4.13;;;;;;;-142.25;100.00;58004.16;5106177;28;20073;-58
2021/08/23 00:31:52;;;;;;;6.15;4.63;;;;;;;-142.25;100.00;58004.16;5107124;28;20031;-60
2021/08/23 00:34:18;;;;;;;4.55;3.80;;;;;;;-142.25;100.00;58004.16;5106065;28;20083;-59
2021/08/23 00:36:44;;;;;;;5.15;4.47;;;;;;;-142.25;100.00;58004.16;5108412;28;20070;-58
2021/08/23 00:39:11;;;;;;;5.60;4.47;;;;;;;-142.25;100.00;58004.16;5107207;28;20142;-59
2021/08/23 00:41:38;;;;;;;4.55;4.00;;;;;;;-142.25;100.00;58004.16;5109343;28;20036;-59
2021/08/23 00:44:05;;;;;;;5.38;4.35;;;;;;;-142.25;100.00;58004.16;5105046;28;20031;-59
2021/08/23 00:46:31;;;;;;;7.55;4.25;;;;;;;-142.25;100.00;58004.16;5106614;28;20470;-59
2021/08/23 00:48:56;;;;;;;4.78;4.13;;;;;;;-142.25;100.00;58004.16;5104828;28;20281;-58
2021/08/23 00:51:22;;;;;;;6.60;4.80;;;;;;;-142.25;100.00;58004.16;5106991;28;20023;-59
2021/08/23 00:53:48;;;;;;;6.22;5.15;;;;;;;-142.25;100.00;58004.16;5105212;28;20658;-59
2021/08/23 00:56:15;;;;;;;5.68;5.15;;;;;;;-142.25;100.00;58004.16;5104711;28;20368;-60
2021/08/23 00:58:41;;;;;;;4.72;4.30;;;;;;;-142.25;100.00;58004.16;5103067;28;20023;-59
2021/08/23 01:01:20;;;;;;;6.55;4.45;;;;;;;-142.25;100.00;58004.16;5101326;28;20031;-59
2021/08/23 01:04:09;;;;;;;6.43;4.32;;;;;;;-142.25;100.00;58004.16;5104646;28;20035;-59
2021/08/23 01:06:35;;;;;;;7.20;4.85;;;;;;;-142.25;100.00;58004.16;5102444;28;20303;-60
2021/08/23 01:09:05;;;;;;;5.90;4.47;;;;;;;-142.25;100.00;58004.16;5100901;28;20027;-59
2021/08/23 01:11:35;;;;;;;6.05;4.20;;;;;;;-142.25;100.00;58004.16;5103152;28;20258;-59
2021/08/23 01:14:02;;;;;;;4.70;3.72;;;;;;;-142.25;100.00;58004.16;5102785;28;20024;-59
2021/08/23 01:16:28;;;;;;;5.78;3.70;;;;;;;-142.25;100.00;58004.16;5102774;28;20023;-61
2021/08/23 01:18:54;;;;;;;5.47;3.92;;;;;;;-142.25;100.00;58004.16;5102725;28;20258;-60
2021/08/23 01:21:25;;;;;;;4.15;3.75;;;;;;;-142.25;100.00;58004.16;5101075;28;20297;-58
2021/08/23 01:23:52;;;;;;;5.80;3.83;;;;;;;-142.25;100.00;58004.16;5100939;28;20516;-58
2021/08/23 01:26:25;;;;;;;3.83;3.45;;;;;;;-142.25;100.00;58004.16;5101291;28;20157;-60
2021/08/23 01:29:19;;;;;;;5.55;3.55;;;;;;;-142.25;100.00;58004.16;5102320;28;20460;-58
2021/08/23 01:31:53;;;;;;;4.68;3.60;;;;;;;-142.25;100.00;58004.16;5104270;28;20054;-60
2021/08/23 01:34:20;;;;;;;4.37;3.97;;;;;;;-142.25;100.00;58004.16;5087566;28;20054;-59
2021/08/23 01:36:46;;;;;;;6.60;4.10;;;;;;;-142.25;100.00;58004.16;5101878;28;20399;-60
2021/08/23 01:39:12;;;;;;;4.93;3.65;;;;;;;-142.25;100.00;58004.16;5100388;28;20028;-59
2021/08/23 01:41:37;;;;;;;3.80;3.40;;;;;;;-142.25;100.00;58004.16;5104748;28;20334;-59
2021/08/23 01:44:03;;;;;;;3.90;3.47;;;;;;;-142.25;100.00;58004.16;5100542;28;20043;-59
2021/08/23 01:46:30;;;;;;;8.18;3.92;;;;;;;-142.25;100.00;58004.16;5104312;28;20231;-59
2021/08/23 01:49:00;;;;;;;6.28;4.03;;;;;;;-142.25;100.00;58004.16;5103735;28;20161;-60
2021/08/23 01:51:27;;;;;;;5.13;4.15;;;;;;;-142.25;100.00;58004.16;5101668;28;20036;-60
2021/08/23 01:53:52;;;;;;;4.68;3.35;;;;;;;-142.25;100.00;58004.16;5102038;28;20036;-58
2021/08/23 01:56:18;;;;;;;5.00;3.60;;;;;;;-142.25;100.00;58004.16;5102884;28;20042;-59
2021/08/23 01:58:43;;;;;;;4.45;3.85;;;;;;;-142.25;100.00;58004.16;5101933;28;20035;-60
2021/08/23 02:01:08;;;;;;;4.13;3.47;;;;;;;-142.25;100.00;58004.16;5100527;28;20421;-59
2021/08/23 02:03:34;;;;;;;4.38;3.55;;;;;;;-142.25;100.00;58004.16;5100510;28;20024;-60
2021/08/23 02:05:59;;;;;;;4.10;2.92;;;;;;;-142.25;100.00;58004.16;5097994;28;20053;-60
2021/08/23 02:08:25;;;;;;;5.40;4.30;;;;;;;-142.25;100.00;58004.16;5101082;28;20062;-58
2021/08/23 02:10:50;;;;;;;4.15;3.22;;;;;;;-142.25;100.00;58004.16;5102121;28;20396;-59
2021/08/23 02:13:15;;;;;;;4.18;3.17;;;;;;;-142.25;100.00;58004.16;5102080;28;20104;-59
2021/08/23 02:15:41;;;;;;;3.95;3.40;;;;;;;-142.25;100.00;58004.16;5099956;28;20513;-59
2021/08/23 02:18:06;;;;;;;3.75;3.45;;;;;;;-142.25;100.00;58004.16;5102408;28;20153;-57
2021/08/23 02:20:32;;;;;;;3.85;3.33;;;;;;;-142.25;100.00;58004.16;5104354;28;20032;-58
2021/08/23 02:22:57;;;;;;;4.10;3.40;;;;;;;-142.25;100.00;58004.16;5100278;28;20028;-59
2021/08/23 02:25:23;;;;;;;4.72;3.90;;;;;;;-142.25;100.00;58004.16;5101267;28;20023;-58
2021/08/23 02:27:52;;;;;;;4.45;3.85;;;;;;;-142.25;100.00;58004.16;5101600;28;20111;-60
2021/08/23 02:30:18;;;;;;;4.85;3.55;;;;;;;-142.25;100.00;58004.16;5100905;28;20035;-60
2021/08/23 02:32:44;;;;;;;4.05;3.65;;;;;;;-142.25;100.00;58004.16;5101940;28;20047;-58
2021/08/23 02:35:09;;;;;;;3.58;3.28;;;;;;;-142.25;100.00;58004.16;5100809;28;20134;-60
2021/08/23 02:37:35;;;;;;;5.28;3.40;;;;;;;-142.25;100.00;58004.16;5103100;28;20054;-59
2021/08/23 02:40:00;;;;;;;6.18;3.58;;;;;;;-142.25;100.00;58004.16;5101129;28;20024;-60
2021/08/23 02:42:26;;;;;;;5.22;3.78;;;;;;;-142.25;100.00;58004.16;5102419;28;20277;-60
2021/08/23 02:44:51;;;;;;;6.03;4.18;;;;;;;-142.25;100.00;58004.16;5098770;28;20032;-60
2021/08/23 02:47:16;;;;;;;6.93;3.85;;;;;;;-142.25;100.00;58004.16;5101154;28;20024;-57
2021/08/23 02:49:42;;;;;;;3.83;3.42;;;;;;;-142.25;100.00;58004.16;5101639;28;20550;-58
2021/08/23 02:52:07;;;;;;;4.18;3.40;;;;;;;-142.25;100.00;58004.16;5099538;28;20035;-58
2021/08/23 02:54:33;;;;;;;3.85;3.45;;;;;;;-142.25;100.00;58004.16;5099626;28;20027;-58
2021/08/23 02:56:58;;;;;;;3.50;3.20;;;;;;;-142.25;100.00;58004.16;5099748;28;20084;-58
2021/08/23 02:59:23;;;;;;;3.15;2.85;;;;;;;-142.25;100.00;58004.16;5101184;28;20345;-60
2021/08/23 03:01:49;;;;;;;3.88;3.47;;;;;;;-142.25;100.00;58004.16;5100576;28;20032;-58
2021/08/23 03:04:14;;;;;;;4.78;4.25;;;;;;;-142.25;100.00;58004.16;5098951;28;20373;-59
2021/08/23 03:06:40;;;;;;;3.67;3.17;;;;;;;-142.25;100.00;58004.16;5100862;28;20028;-59
2021/08/23 03:09:05;;;;;;;3.60;3.22;;;;;;;-142.25;100.00;58004.16;5099599;28;20032;-58
2021/08/23 03:11:30;;;;;;;5.28;3.92;;;;;;;-142.25;100.00;58004.16;5099359;28;20666;-58
2021/08/23 03:13:56;;;;;;;4.97;3.58;;;;;;;-142.25;100.00;58004.16;5100611;28;20077;-59
2021/08/23 03:16:21;;;;;;;5.65;4.05;;;;;;;-142.25;100.00;58004.16;5099742;28;20405;-58
2021/08/23 03:18:47;;;;;;;6.65;4.80;;;;;;;-142.25;100.00;58004.16;5099657;28;20071;-59
2021/08/23 03:21:13;;;;;;;6.43;4.18;;;;;;;-142.25;100.00;58004.16;5098797;28;20024;-59
2021/08/23 03:23:38;;;;;;;4.43;3.70;;;;;;;-142.25;100.00;58004.16;5099725;28;20031;-59
2021/08/23 03:26:05;;;;;;;4.75;3.70;;;;;;;-142.25;100.00;58004.16;5100651;28;20078;-59
2021/08/23 03:28:30;;;;;;;5.45;4.10;;;;;;;-142.25;100.00;58004.16;5100112;28;20028;-58
2021/08/23 03:30:56;;;;;;;4.43;3.40;;;;;;;-142.25;100.00;58004.16;5099163;28;20088;-56
2021/08/23 03:33:22;;;;;;;6.45;4.07;;;;;;;-142.25;100.00;58004.16;5100376;28;20023;-59
2021/08/23 03:35:47;;;;;;;4.75;3.72;;;;;;;-142.25;100.00;58004.16;5098544;28;20047;-57
2021/08/23 03:38:13;;;;;;;5.50;3.78;;;;;;;-142.25;100.00;58004.16;5098887;28;20088;-58
2021/08/23 03:40:39;;;;;;;4.25;3.55;;;;;;;-142.25;100.00;58004.16;5098080;28;20057;-59
2021/08/23 03:43:05;;;;;;;9.20;5.40;;;;;;;-142.25;100.00;58004.16;5099607;28;20023;-59
2021/08/23 03:45:31;;;;;;;6.50;4.68;;;;;;;-142.25;100.00;58004.16;5099641;28;20386;-56
2021/08/23 03:47:56;;;;;;;5.68;3.97;;;;;;;-142.25;100.00;58004.16;5099113;28;20036;-59
2021/08/23 03:50:22;;;;;;;5.10;3.80;;;;;;;-142.25;100.00;58004.16;5100139;28;20492;-58
2021/08/23 03:52:48;;;;;;;6.75;4.38;;;;;;;-142.25;100.00;58004.16;5098556;28;20443;-57
2021/08/23 03:55:13;;;;;;;5.95;4.10;;;;;;;-142.25;100.00;58004.16;5102062;28;20346;-56
2021/08/23 03:57:39;;;;;;;4.95;4.00;;;;;;;-142.25;100.00;58004.16;5098883;28;20340;-56
2021/08/23 04:00:07;;;;;;;9.05;3.95;;;;;;;-142.25;100.00;58004.16;5099012;28;20046;-59
2021/08/23 04:02:32;;;;;;;7.07;5.05;;;;;;;-142.25;100.00;58004.16;5099085;28;20028;-59
2021/08/23 04:04:58;;;;;;;5.28;3.75;;;;;;;-142.25;100.00;58004.16;5101522;28;20053;-58
2021/08/23 04:07:24;;;;;;;5.38;4.15;;;;;;;-142.25;100.00;58004.16;5101822;28;20035;-59
2021/08/23 04:09:49;;;;;;;6.97;4.05;;;;;;;-142.25;100.00;58004.16;5099565;28;20039;-58
2021/08/23 04:12:14;;;;;;;5.55;4.00;;;;;;;-142.25;100.00;58004.16;5099392;28;20038;-57
2021/08/23 04:14:40;;;;;;;3.40;2.78;;;;;;;-142.25;100.00;58004.16;5100185;28;20051;-57
2021/08/23 04:17:05;;;;;;;6.13;3.53;;;;;;;-142.25;100.00;58004.16;5098735;28;20028;-58
2021/08/23 04:19:31;;;;;;;4.28;3.42;;;;;;;-142.25;100.00;58004.16;5098566;28;20165;-55
2021/08/23 04:21:57;;;;;;;4.55;3.45;;;;;;;-142.25;100.00;58004.16;5100557;28;20355;-57
2021/08/23 04:24:23;;;;;;;4.18;3.50;;;;;;;-142.25;100.00;58004.16;5100365;28;20313;-59
2021/08/23 04:26:49;;;;;;;3.47;3.17;;;;;;;-142.25;100.00;58004.16;5099790;28;20114;-59
2021/08/23 04:29:15;;;;;;;5.22;3.60;;;;;;;-142.25;100.00;58004.16;5100868;28;20027;-58
2021/08/23 04:31:42;;;;;;;4.25;3.30;;;;;;;-142.25;100.00;58004.16;5103645;28;20381;-58
2021/08/23 04:34:07;;;;;;;6.95;3.92;;;;;;;-142.25;100.00;58004.16;5100962;28;20031;-58
2021/08/23 04:36:33;;;;;;;4.80;2.80;;;;;;;-142.25;100.00;58004.16;5103738;28;20100;-59
2021/08/23 04:38:58;;;;;;;7.00;3.30;;;;;;;-142.25;100.00;58004.16;5102084;28;20024;-58
2021/08/23 04:41:24;;;;;;;6.90;4.28;;;;;;;-142.25;100.00;58004.16;5102218;28;20080;-56
2021/08/23 04:43:49;;;;;;;4.18;3.33;;;;;;;-142.25;100.00;58004.16;5102779;28;20058;-57
2021/08/23 04:46:15;;;;;;;5.53;3.58;;;;;;;-142.25;100.00;58004.16;5105070;28;20024;-57
2021/08/23 04:48:40;;;;;;;4.13;3.47;;;;;;;-142.25;100.00;58004.16;5104397;28;20491;-57
2021/08/23 04:51:07;;;;;;;6.95;3.85;;;;;;;-142.25;100.00;58004.16;5102517;28;20027;-58
2021/08/23 04:53:33;;;;;;;6.20;3.55;;;;;;;-142.25;100.00;58004.16;5103176;28;20035;-57
2021/08/23 04:55:58;;;;;;;5.13;3.47;;;;;;;-142.25;100.00;58004.16;5102192;28;20335;-58
2021/08/23 04:58:23;;;;;;;3.83;3.00;;;;;;;-142.25;100.00;58004.16;5101726;28;20292;-58
2021/08/23 05:00:49;;;;;;;9.00;4.72;;;;;;;-142.25;100.00;58004.16;5100706;28;20077;-58
2021/08/23 05:03:15;;;;;;;81.47;77.57;;;;;;;-142.25;100.00;58004.16;5099614;28;20107;-59
2021/08/23 05:05:41;;;;;;;27.48;24.95;;;;;;;-142.25;100.00;58004.16;5100486;28;20024;-58
2021/08/23 05:08:07;;;;;;;9.95;5.18;;;;;;;-142.25;100.00;58004.16;5102954;28;20371;-59
2021/08/23 05:10:32;;;;;;;14.57;7.63;;;;;;;-142.25;100.00;58004.16;5101959;28;20027;-58
2021/08/23 05:12:58;;;;;;;7.68;4.03;;;;;;;-142.25;100.00;58004.16;5103200;28;20062;-57
2021/08/23 05:15:24;;;;;;;11.70;5.15;;;;;;;-142.25;100.00;58004.16;5100851;28;20415;-56
2021/08/23 05:17:50;;;;;;;8.73;4.40;;;;;;;-142.25;100.00;58004.16;5102932;28;20246;-57
2021/08/23 05:20:16;;;;;;;7.68;4.25;;;;;;;-142.25;100.00;58004.16;5103876;28;20097;-59
2021/08/23 05:22:41;;;;;;;10.88;5.18;;;;;;;-142.25;100.00;58004.16;5103727;28;20044;-58
2021/08/23 05:25:07;;;;;;;7.35;4.47;;;;;;;-142.25;100.00;58004.16;5103426;28;20086;-56
2021/08/23 05:27:33;;;;;;;6.97;4.20;;;;;;;-142.25;100.00;58004.16;5104135;28;20371;-58
2021/08/23 05:30:03;;;;;;;7.22;4.32;;;;;;;-142.25;100.00;58004.16;5105026;28;20031;-59
2021/08/23 05:32:29;;;;;;;8.48;4.50;;;;;;;-142.25;100.00;58004.16;5103022;28;20277;-56
2021/08/23 05:34:55;;;;;;;6.15;3.83;;;;;;;-142.25;100.00;58004.16;5103904;28;20047;-59
2021/08/23 05:37:20;;;;;;;5.20;3.80;;;;;;;-142.25;100.00;58004.16;5101175;28;20059;-59
2021/08/23 05:39:46;;;;;;;5.97;4.40;;;;;;;-142.25;100.00;58004.16;5100691;28;20460;-59
2021/08/23 05:42:13;;;;;;;4.05;3.58;;;;;;;-142.25;100.00;58004.16;5102385;28;20109;-58
2021/08/23 05:44:39;;;;;;;6.03;4.18;;;;;;;-142.25;100.00;58004.16;5100087;28;20365;-58
2021/08/23 05:47:05;;;;;;;5.15;3.67;;;;;;;-142.25;100.00;58004.16;5102226;28;20047;-58
2021/08/23 05:49:30;;;;;;;3.67;3.28;;;;;;;-142.25;100.00;58004.16;5099619;28;20566;-57
2021/08/23 05:51:55;;;;;;;4.25;3.50;;;;;;;-142.25;100.00;58004.16;5100200;28;20067;-60
2021/08/23 05:54:21;;;;;;;5.43;3.58;;;;;;;-142.25;100.00;58004.16;5099300;28;20043;-58
2021/08/23 05:56:46;;;;;;;4.63;3.60;;;;;;;-142.25;100.00;58004.16;5102605;28;20403;-59
2021/08/23 05:59:12;;;;;;;4.15;3.72;;;;;;;-142.25;100.00;58004.16;5102472;28;20035;-59
2021/08/23 06:01:37;;;;;;;5.60;3.92;;;;;;;-142.25;100.00;58004.16;5103241;28;20041;-57
2021/08/23 06:04:03;;;;;;;4.00;3.60;;;;;;;-142.25;100.00;58004.16;5100676;28;20039;-60
2021/08/23 06:06:28;;;;;;;5.90;3.55;;;;;;;-142.25;100.00;58004.16;5100526;28;20042;-59
2021/08/23 06:08:53;;;;;;;4.38;3.45;;;;;;;-142.25;100.00;58004.16;5100997;28;20054;-58
2021/08/23 06:11:19;;;;;;;5.90;3.70;;;;;;;-142.25;100.00;58004.16;5104370;28;20055;-57
2021/08/23 06:13:44;;;;;;;5.07;3.92;;;;;;;-142.25;100.00;58004.16;5100424;28;20361;-57
2021/08/23 06:16:10;;;;;;;3.70;2.45;;;;;;;-142.25;100.00;58004.16;5102213;28;20035;-60
2021/08/23 06:18:35;;;;;;;4.88;3.50;;;;;;;-142.25;100.00;58004.16;5100550;28;20448;-58
2021/08/23 06:21:01;;;;;;;3.22;2.92;;;;;;;-142.25;100.00;58004.16;5101728;28;20027;-60
2021/08/23 06:23:26;;;;;;;2.78;2.58;;;;;;;-142.25;100.00;58004.16;5103152;28;20382;-59
2021/08/23 06:25:52;;;;;;;3.35;3.05;;;;;;;-142.25;100.00;58004.16;5100666;28;20042;-60
2021/08/23 06:28:20;;;;;;;2.72;2.53;;;;;;;-142.25;100.00;58004.16;5101515;28;20039;-59
2021/08/23 06:30:45;;;;;;;4.63;3.40;;;;;;;-142.25;100.00;58004.16;5100347;28;20019;-59
2021/08/23 06:33:11;;;;;;;2.63;2.42;;;;;;;-142.25;100.00;58004.16;5101983;28;20020;-59
2021/08/23 06:35:36;;;;;;;3.30;2.22;;;;;;;-142.25;100.00;58004.16;5101882;28;20419;-59
2021/08/23 06:38:02;;;;;;;2.95;2.75;;;;;;;-142.25;100.00;58004.16;5101271;28;20032;-60
2021/08/23 06:40:28;;;;;;;2.75;2.50;;;;;;;-142.25;100.00;58004.16;5101820;28;20028;-59
2021/08/23 06:42:53;;;;;;;2.70;2.50;;;;;;;-142.25;100.00;58004.16;5100809;28;20019;-60
2021/08/23 06:45:19;;;;;;;3.45;3.15;;;;;;;-142.25;100.00;58004.16;5099502;28;20028;-59
2021/08/23 06:47:44;;;;;;;3.80;3.50;;;;;;;-142.25;100.00;58004.16;5098629;28;20069;-60
2021/08/23 06:50:10;;;;;;;3.50;3.15;;;;;;;-142.25;100.00;58004.16;5101464;28;20340;-59
2021/08/23 06:52:36;;;;;;;4.22;3.60;;;;;;;-142.25;100.00;58004.16;5100045;28;20374;-59
2021/08/23 06:55:01;;;;;;;3.50;2.80;;;;;;;-142.25;100.00;58004.16;5101939;28;20380;-59
2021/08/23 06:57:26;;;;;;;4.05;3.65;;;;;;;-142.25;100.00;58004.16;5100665;28;20100;-60
2021/08/23 06:59:52;;;;;;;6.38;5.10;;;;;;;-142.25;100.00;58004.16;5100431;28;20035;-59
2021/08/23 07:02:17;;;;;;;4.10;3.80;;;;;;;-142.25;100.00;58004.16;5099881;28;20039;-59
2021/08/23 07:04:46;;;;;;;4.32;3.90;;;;;;;-142.25;100.00;58004.16;5102385;28;20039;-59
2021/08/23 07:07:11;;;;;;;5.63;3.83;;;;;;;-142.25;100.00;58004.16;5099374;28;20055;-60
2021/08/23 07:09:37;;;;;;;3.45;3.15;;;;;;;-142.25;100.00;58004.16;5100781;28;20066;-60
2021/08/23 07:12:02;;;;;;;4.78;3.38;;;;;;;-142.25;100.00;58004.16;5101566;28;20031;-60
2021/08/23 07:14:28;;;;;;;3.97;3.60;;;;;;;-142.25;100.00;58004.16;5103366;28;20031;-60
2021/08/23 07:16:53;;;;;;;4.50;4.03;;;;;;;-142.25;100.00;58004.16;5101154;28;20555;-60
2021/08/23 07:19:19;;;;;;;5.90;3.90;;;;;;;-142.25;100.00;58004.16;5098797;28;20105;-60
2021/08/23 07:21:44;;;;;;;4.15;3.78;;;;;;;-142.25;100.00;58004.16;5100275;28;20062;-59
2021/08/23 07:24:10;;;;;;;4.38;3.35;;;;;;;-142.25;100.00;58004.16;5100899;28;20051;-60
2021/08/23 07:26:36;;;;;;;4.13;3.72;;;;;;;-142.25;100.00;58004.16;5098770;28;20788;-60
2021/08/23 07:29:01;;;;;;;3.90;3.50;;;;;;;-142.25;100.00;58004.16;5101912;28;20027;-59
2021/08/23 07:31:27;;;;;;;3.92;3.55;;;;;;;-142.25;100.00;58004.16;5099514;28;20035;-60
2021/08/23 07:33:52;;;;;;;5.60;3.30;;;;;;;-142.25;100.00;58004.16;5098297;28;20040;-60
2021/08/23 07:36:18;;;;;;;5.68;3.85;;;;;;;-142.25;100.00;58004.16;5099490;28;20344;-60
2021/08/23 07:38:43;;;;;;;3.75;3.45;;;;;;;-142.25;100.00;58004.16;5098900;28;20028;-60
2021/08/23 07:41:08;;;;;;;3.78;3.47;;;;;;;-142.25;100.00;58004.16;5098809;28;20376;-60
2021/08/23 07:43:34;;;;;;;4.25;3.58;;;;;;;-142.25;100.00;58004.16;5099410;28;20068;-60
2021/08/23 07:45:59;;;;;;;4.22;3.83;;;;;;;-142.25;100.00;58004.16;5099877;28;20027;-60
2021/08/23 07:48:25;;;;;;;3.67;3.38;;;;;;;-142.25;100.00;58004.16;5098864;28;20039;-60
2021/08/23 07:50:50;;;;;;;3.67;3.38;;;;;;;-142.25;100.00;58004.16;5098260;28;20024;-60
2021/08/23 07:53:16;;;;;;;4.18;3.78;;;;;;;-142.25;100.00;58004.16;5102823;28;20123;-60
2021/08/23 07:55:42;;;;;;;8.10;5.70;;;;;;;-142.25;100.00;58004.16;5098918;28;20382;-60
2021/08/23 07:58:08;;;;;;;3.30;3.00;;;;;;;-142.25;100.00;58004.16;5098628;28;20055;-60
2021/08/23 08:00:33;;;;;;;5.50;3.33;;;;;;;-142.25;100.00;58004.16;5098586;28;20051;-60
2021/08/23 08:02:58;;;;;;;3.67;3.38;;;;;;;-142.25;100.00;58004.16;5101985;28;20146;-60
2021/08/23 08:05:24;;;;;;;4.57;4.18;;;;;;;-142.25;100.00;58004.16;5105070;28;20114;-60
2021/08/23 08:07:49;;;;;;;4.18;3.33;;;;;;;-142.25;100.00;58004.16;5106042;28;20424;-61
2021/08/23 08:10:15;;;;;;;4.10;3.40;;;;;;;-142.25;100.00;58004.16;5103696;28;20389;-60
2021/08/23 08:12:41;;;;;;;3.63;2.95;;;;;;;-142.25;100.00;58004.16;5103297;28;20024;-60
2021/08/23 08:15:07;;;;;;;5.90;3.30;;;;;;;-142.25;100.00;58004.16;5103665;28;20031;-61
2021/08/23 08:17:33;;;;;;;4.10;3.38;;;;;;;-142.25;100.00;58004.16;5103808;28;20042;-60
2021/08/23 08:19:58;;;;;;;3.30;2.78;;;;;;;-142.25;100.00;58004.16;5101434;28;20019;-60
2021/08/23 08:22:24;;;;;;;4.20;3.80;;;;;;;-142.25;100.00;58004.16;5103471;28;20028;-61
2021/08/23 08:24:49;;;;;;;3.75;3.15;;;;;;;-142.25;100.00;58004.16;5103194;28;20024;-60
2021/08/23 08:27:15;;;;;;;4.38;3.47;;;;;;;-142.25;100.00;58004.16;5104420;28;20114;-62
2021/08/23 08:29:40;;;;;;;3.38;2.90;;;;;;;-142.25;100.00;58004.16;5104001;28;20077;-60
2021/08/23 08:32:06;;;;;;;4.57;3.03;;;;;;;-142.25;100.00;58004.16;5102854;28;20281;-60
2021/08/23 08:34:32;;;;;;;5.30;4.20;;;;;;;-142.25;100.00;58004.16;5104320;28;20163;-60
2021/08/23 08:36:58;;;;;;;3.75;3.33;;;;;;;-142.25;100.00;58004.16;5105938;28;20526;-61
2021/08/23 08:39:24;;;;;;;5.32;3.65;;;;;;;-142.25;100.00;58004.16;5103756;28;20027;-60
2021/08/23 08:41:49;;;;;;;4.88;3.33;;;;;;;-142.25;100.00;58004.16;5100934;28;20059;-60
2021/08/23 08:44:15;;;;;;;6.10;3.63;;;;;;;-142.25;100.00;58004.16;5103741;28;20032;-61
2021/08/23 08:46:42;;;;;;;5.00;3.90;;;;;;;-142.25;100.00;58004.16;5104979;28;20138;-61
2021/08/23 08:49:11;;;;;;;3.83;3.00;;;;;;;-142.25;100.00;58004.16;5100347;28;20158;-60
2021/08/23 08:51:38;;;;;;;4.30;3.53;;;;;;;-142.25;100.00;58004.16;5102023;28;20035;-61
2021/08/23 08:54:04;;;;;;;4.38;3.80;;;;;;;-142.25;100.00;58004.16;5102817;28;20027;-60
2021/08/23 08:56:32;;;;;;;5.20;3.50;;;;;;;-142.25;100.00;58004.16;5103629;28;20020;-61
2021/08/23 08:58:58;;;;;;;4.82;2.95;;;;;;;-142.25;100.00;58004.16;5102993;28;20019;-60
2021/08/23 09:01:23;;;;;;;4.13;3.42;;;;;;;-142.25;100.00;58004.16;5101425;28;20392;-60
2021/08/23 09:03:48;;;;;;;6.22;4.45;;;;;;;-142.25;100.00;58004.16;5100990;28;20037;-60
2021/08/23 09:06:14;;;;;;;4.20;3.50;;;;;;;-142.25;100.00;58004.16;5102070;28;20028;-60
2021/08/23 09:08:43;;;;;;;3.78;3.10;;;;;;;-142.25;100.00;58004.16;5104660;28;20023;-61
2021/08/23 09:11:13;;;;;;;6.45;3.60;;;;;;;-142.25;100.00;58004.16;5101028;28;20081;-61
2021/08/23 09:13:57;;;;;;;4.68;3.17;;;;;;;-142.25;100.00;58004.16;5102803;28;20319;-60
2021/08/23 09:16:33;;;;;;;4.90;3.70;;;;;;;-142.25;100.00;58004.16;5102271;28;20028;-61
2021/08/23 09:18:59;;;;;;;3.28;2.97;;;;;;;-142.25;100.00;58004.16;5103289;28;20056;-61
2021/08/23 09:21:33;;;;;;;4.85;3.95;;;;;;;-142.25;100.00;58004.16;5101913;28;20120;-60
2021/08/23 09:23:59;;;;;;;3.78;3.30;;;;;;;-142.25;100.00;58004.16;5102452;28;20027;-59
2021/08/23 09:26:33;;;;;;;7.68;3.97;;;;;;;-142.25;100.00;58004.16;5102092;28;20039;-62
2021/08/23 09:29:00;;;;;;;5.93;4.07;;;;;;;-142.25;100.00;58004.16;5100756;28;20443;-59
2021/08/23 09:31:30;;;;;;;4.07;3.72;;;;;;;-142.25;100.00;58004.16;5102793;28;20028;-60
2021/08/23 09:34:01;;;;;;;5.20;3.67;;;;;;;-142.25;100.00;58004.16;5101819;28;20055;-60
2021/08/23 09:36:27;;;;;;;3.70;3.10;;;;;;;-142.25;100.00;58004.16;5100807;28;20048;-60
2021/08/23 09:39:02;;;;;;;3.78;3.17;;;;;;;-142.25;100.00;58004.16;5101820;28;20320;-60
2021/08/23 09:41:28;;;;;;;;;;;;;;;-142.25;100.00;58004.16;5103942;28;20039;-60
2021/08/23 09:44:11;;;;;;;3.20;2.90;;;;;;;-142.25;100.00;58004.16;5102333;28;19923;-60
2021/08/23 09:46:38;;;;;;;3.30;3.00;;;;;;;-142.25;100.00;58004.16;5102287;28;20403;-60
2021/08/23 09:49:06;;;;;;;3.22;2.63;;;;;;;-142.25;100.00;58004.16;5100875;28;20480;-60
2021/08/23 09:51:38;;;;;;;7.35;4.68;;;;;;;-142.25;100.00;58004.16;5101959;28;20148;-60
2021/08/23 09:54:14;;;;;;;4.97;3.70;;;;;;;-142.25;100.00;58004.16;5103012;28;20365;-60
2021/08/23 09:56:53;;;;;;;4.43;3.33;;;;;;;-142.25;100.00;58004.16;5101279;28;20061;-60
2021/08/23 09:59:23;;;;;;;5.05;3.40;;;;;;;-142.25;100.00;58004.16;5101068;28;20028;-59
2021/08/23 10:01:51;;;;;;;4.18;2.80;;;;;;;-142.25;100.00;58004.16;5103148;28;20362;-59
2021/08/23 10:04:18;;;;;;;4.55;3.25;;;;;;;-142.25;100.00;58004.16;5109635;28;20115;-59
2021/08/23 10:06:45;;;;;;;3.20;2.97;;;;;;;-142.25;100.00;58004.16;5100707;28;20031;-59
2021/08/23 10:09:17;;;;;;;4.00;2.75;;;;;;;-142.25;100.00;58004.16;5101993;28;20154;-60
2021/08/23 10:11:42;;;;;;;3.78;2.92;;;;;;;-142.25;100.00;58004.16;5099460;28;20031;-63
2021/08/23 10:14:08;;;;;;;5.15;3.20;;;;;;;-142.25;100.00;58004.16;5100510;28;20027;-59
2021/08/23 10:16:37;;;;;;;4.18;3.42;;;;;;;-142.25;100.00;58004.16;5100850;28;20065;-62
2021/08/23 10:19:04;;;;;;;4.47;3.55;;;;;;;-142.25;100.00;58004.16;5101761;28;20024;-60
2021/08/23 10:21:30;;;;;;;5.30;3.13;;;;;;;-142.25;100.00;58004.16;5100754;28;20031;-60
2021/08/23 10:23:57;;;;;;;3.70;3.35;;;;;;;-142.25;100.00;58004.16;5099447;28;20082;-60
2021/08/23 10:26:23;;;;;;;3.53;2.88;;;;;;;-142.25;100.00;58004.16;5100746;28;20377;-59
2021/08/23 10:28:49;;;;;;;4.82;3.10;;;;;;;-142.25;100.00;58004.16;5102541;28;20059;-60
2021/08/23 10:31:17;;;;;;;3.78;3.35;;;;;;;-142.25;100.00;58004.16;5103227;28;20062;-59
2021/08/23 10:33:44;;;;;;;5.50;3.40;;;;;;;-142.25;100.00;58004.16;5100002;28;20039;-66
2021/08/23 10:36:16;;;;;;;5.15;3.42;;;;;;;-142.25;100.00;58004.16;5099143;28;20048;-66
2021/08/23 10:38:43;;;;;;;4.63;3.28;;;;;;;-142.25;100.00;58004.16;5099667;28;20473;-66
2021/08/23 10:41:10;;;;;;;5.53;3.33;;;;;;;-142.25;100.00;58004.16;5099929;28;20051;-66
2021/08/23 10:44:06;;;;;;;5.00;3.40;;;;;;;-142.25;100.00;58004.16;5100298;28;20371;-67
2021/08/23 10:46:36;;;;;;;5.35;3.33;;;;;;;-142.25;100.00;58004.16;5100791;28;20040;-66
2021/08/23 10:49:16;;;;;;;4.13;3.30;;;;;;;-142.25;100.00;58004.16;5100370;28;20027;-67
2021/08/23 10:51:56;;;;;;;3.78;3.40;;;;;;;-142.25;100.00;58004.16;5100194;28;20339;-66
2021/08/23 10:54:27;;;;;;;4.63;2.70;;;;;;;-142.25;100.00;58004.16;5102442;28;20046;-66
2021/08/23 10:57:01;;;;;;;4.72;4.28;;;;;;;-142.25;100.00;58004.16;5101569;28;20041;-64
2021/08/23 10:59:50;;;;;;;3.60;3.15;;;;;;;-142.25;100.00;58004.16;5101307;28;20039;-65
2021/08/23 11:02:37;;;;;;;3.92;3.28;;;;;;;-142.25;100.00;58004.16;5100419;28;20040;-64
2021/08/23 11:05:07;;;;;;;5.53;3.38;;;;;;;-142.25;100.00;58004.16;5100910;28;20423;-65
2021/08/23 11:07:34;;;;;;;4.43;3.35;;;;;;;-142.25;100.00;58004.16;5099104;28;20028;-65
2021/08/23 11:10:13;;;;;;;4.68;3.63;;;;;;;-142.25;100.00;58004.16;5102142;28;20078;-66